createdAt,value
2019-03-09T00:02:28.308Z,91.30
2019-03-09T00:06:33.301Z,91.40
2019-03-09T00:10:38.499Z,91.40
2019-03-09T00:14:43.813Z,91.50
2019-03-09T00:18:48.822Z,91.50
2019-03-09T00:22:57.993Z,91.60
2019-03-09T00:27:16.713Z,91.50
2019-03-09T00:31:26.301Z,91.80
2019-03-09T00:35:31.294Z,91.50
2019-03-09T00:39:36.341Z,91.50
2019-03-09T00:43:41.439Z,91.40
2019-03-09T00:47:46.406Z,91.90
2019-03-09T00:51:51.402Z,91.50
2019-03-09T00:55:56.438Z,91.50
2019-03-09T01:00:01.530Z,91.70
2019-03-09T01:04:07.630Z,91.30
2019-03-09T01:08:14.574Z,91.20
2019-03-09T01:12:19.226Z,91.20
2019-03-09T01:16:25.316Z,91.20
2019-03-09T01:20:30.224Z,91.20
2019-03-09T01:24:35.214Z,91.10
2019-03-09T01:28:40.187Z,90.80
2019-03-09T01:32:45.330Z,90.60
2019-03-09T01:36:50.316Z,90.30
2019-03-09T01:40:55.332Z,90.20
2019-03-09T01:45:00.383Z,90.10
2019-03-09T01:49:05.434Z,90.10
2019-03-09T01:53:10.426Z,90.00
2019-03-09T01:57:15.430Z,89.70
2019-03-09T02:01:20.491Z,89.10
2019-03-09T02:05:25.593Z,89.00
2019-03-09T02:09:30.666Z,88.30
2019-03-09T02:13:35.649Z,88.50
2019-03-09T02:17:40.646Z,88.40
2019-03-09T02:21:45.633Z,88.70
2019-03-09T02:25:50.714Z,88.70
2019-03-09T02:29:55.781Z,88.30
2019-03-09T02:34:00.754Z,88.00
2019-03-09T02:38:07.379Z,88.20
2019-03-09T02:42:12.378Z,88.00
2019-03-09T02:46:17.367Z,88.10
2019-03-09T02:50:22.363Z,86.90
2019-03-09T02:54:27.673Z,85.90
2019-03-09T02:58:32.740Z,85.20
2019-03-09T03:02:39.379Z,85.50
2019-03-09T03:06:44.367Z,84.70
2019-03-09T03:10:49.404Z,84.50
2019-03-09T03:14:55.606Z,84.70
2019-03-09T03:19:00.570Z,84.50
2019-03-09T03:23:05.622Z,84.30
2019-03-09T03:27:10.802Z,84.00
2019-03-09T03:31:15.879Z,83.40
2019-03-09T03:35:20.910Z,83.60
2019-03-09T03:39:25.880Z,83.50
2019-03-09T03:43:30.869Z,83.30
2019-03-09T03:47:35.861Z,83.20
2019-03-09T03:51:40.856Z,83.00
2019-03-09T03:55:45.961Z,83.30
2019-03-09T03:59:50.972Z,84.40
2019-03-09T04:03:56.014Z,83.80
2019-03-09T04:08:01.183Z,83.20
2019-03-09T04:12:06.187Z,83.40
2019-03-09T04:16:11.162Z,82.60
2019-03-09T04:20:16.287Z,82.00
2019-03-09T04:24:21.259Z,81.70
2019-03-09T04:28:26.412Z,81.60
2019-03-09T04:32:32.463Z,81.50
2019-03-09T04:36:37.464Z,81.60
2019-03-09T04:40:42.449Z,81.90
2019-03-09T04:44:47.426Z,82.80
2019-03-09T04:48:52.877Z,82.40
2019-03-09T04:52:57.935Z,82.50
2019-03-09T04:57:02.920Z,83.00
2019-03-09T05:01:08.090Z,82.10
2019-03-09T05:05:13.401Z,81.90
2019-03-09T05:09:42.921Z,81.50
2019-03-09T05:13:47.990Z,80.90
2019-03-09T05:17:52.978Z,80.40
2019-03-09T05:21:57.965Z,80.30
2019-03-09T05:26:02.960Z,80.10
2019-03-09T05:30:14.045Z,80.60
2019-03-09T05:34:19.182Z,80.80
2019-03-09T05:38:24.925Z,81.10
2019-03-09T05:42:29.954Z,82.10
2019-03-09T05:46:34.958Z,82.40
2019-03-09T05:50:39.926Z,82.70
2019-03-09T05:54:44.913Z,82.70
2019-03-09T05:58:49.980Z,84.40
2019-03-09T06:02:55.057Z,87.40
2019-03-09T06:07:00.143Z,89.70
2019-03-09T06:11:05.196Z,90.90
2019-03-09T06:15:10.300Z,91.70
2019-03-09T06:19:15.293Z,92.60
2019-03-09T06:23:20.286Z,92.90
2019-03-09T06:27:25.280Z,93.70
2019-03-09T06:31:30.375Z,95.00
2019-03-09T06:35:35.357Z,95.20
2019-03-09T06:39:40.395Z,96.10
2019-03-09T06:43:45.409Z,96.40
2019-03-09T06:47:50.410Z,97.30
2019-03-09T06:51:55.517Z,97.70
2019-03-09T06:56:00.562Z,97.60
2019-03-09T07:00:29.773Z,97.60
2019-03-09T07:04:35.847Z,97.70
2019-03-09T07:08:40.905Z,97.90
2019-03-09T07:12:45.934Z,97.80
2019-03-09T07:16:50.910Z,98.30
2019-03-09T07:20:55.880Z,98.00
2019-03-09T07:25:00.974Z,97.90
2019-03-09T07:29:07.017Z,98.10
2019-03-09T07:33:12.571Z,97.40
2019-03-09T07:37:17.898Z,97.10
2019-03-09T07:41:23.068Z,96.70
2019-03-09T07:45:28.059Z,95.70
2019-03-09T07:49:33.092Z,95.40
2019-03-09T07:53:38.081Z,94.40
2019-03-09T07:57:43.238Z,94.10
2019-03-09T08:01:49.687Z,93.10
2019-03-09T08:05:55.345Z,92.70
2019-03-09T08:10:00.605Z,91.90
2019-03-09T08:14:06.834Z,91.50
2019-03-09T08:18:12.115Z,90.90
2019-03-09T08:22:17.382Z,91.00
2019-03-09T08:26:22.629Z,91.10
2019-03-09T08:30:28.940Z,90.70
2019-03-09T08:34:34.318Z,90.60
2019-03-09T08:38:39.569Z,90.10
2019-03-09T08:42:44.862Z,88.20
2019-03-09T08:46:50.348Z,73.50
2019-03-09T08:50:55.606Z,57.60
2019-03-09T08:55:01.955Z,55.40
2019-03-09T08:59:07.257Z,56.80
2019-03-09T09:03:13.038Z,59.00
2019-03-09T09:07:18.299Z,60.70
2019-03-09T09:11:23.559Z,64.70
2019-03-09T09:15:28.826Z,70.50
2019-03-09T09:19:34.110Z,71.10
2019-03-09T09:23:39.373Z,71.50
2019-03-09T09:27:44.634Z,73.60
2019-03-09T09:31:50.553Z,75.40
2019-03-09T09:35:55.823Z,76.10
2019-03-09T09:40:01.084Z,78.40
2019-03-09T09:44:07.629Z,79.20
2019-03-09T09:48:12.977Z,68.80
2019-03-09T09:52:18.226Z,66.20
2019-03-09T09:56:23.511Z,64.20
2019-03-09T10:00:29.205Z,56.60
2019-03-09T10:04:34.474Z,60.60
2019-03-09T10:08:40.282Z,63.30
2019-03-09T10:12:45.602Z,67.40
2019-03-09T10:16:50.993Z,71.00
2019-03-09T10:20:56.269Z,71.90
2019-03-09T10:25:01.534Z,72.10
2019-03-09T10:29:07.077Z,75.10
2019-03-09T10:33:12.355Z,75.80
2019-03-09T10:37:18.126Z,76.40
2019-03-09T10:41:24.062Z,76.30
2019-03-09T10:45:29.757Z,76.90
2019-03-09T10:49:35.036Z,76.00
2019-03-09T10:53:40.421Z,75.20
2019-03-09T10:57:45.807Z,75.60
2019-03-09T11:01:51.127Z,76.10
2019-03-09T11:05:57.626Z,73.60
2019-03-09T11:10:03.189Z,72.00
2019-03-09T11:14:08.459Z,71.40
2019-03-09T11:18:13.702Z,70.20
2019-03-09T11:22:18.973Z,68.90
2019-03-09T11:26:24.246Z,66.50
2019-03-09T11:30:29.685Z,64.60
2019-03-09T11:34:34.949Z,63.60
2019-03-09T11:38:41.161Z,60.10
2019-03-09T11:42:46.660Z,62.70
2019-03-09T11:46:51.950Z,65.00
2019-03-09T11:50:57.220Z,64.80
2019-03-09T11:55:02.563Z,65.80
2019-03-09T11:59:07.893Z,66.20
2019-03-09T12:03:13.153Z,66.10
2019-03-09T12:07:18.438Z,67.50
2019-03-09T12:11:23.701Z,68.40
2019-03-09T12:15:29.025Z,68.60
2019-03-09T12:19:34.443Z,70.70
2019-03-09T12:23:39.839Z,71.90
2019-03-09T12:27:45.317Z,72.70
2019-03-09T12:31:50.653Z,72.30
2019-03-09T12:35:56.639Z,72.20
2019-03-09T12:40:01.918Z,70.50
2019-03-09T12:44:07.453Z,70.30
2019-03-09T12:48:13.599Z,67.30
2019-03-09T12:52:18.849Z,68.00
2019-03-09T12:56:24.122Z,67.30
2019-03-09T13:00:29.429Z,67.00
2019-03-09T13:04:34.711Z,64.80
2019-03-09T13:08:41.106Z,65.40
2019-03-09T13:12:46.629Z,66.60
2019-03-09T13:16:51.890Z,67.10
2019-03-09T13:20:57.162Z,66.80
2019-03-09T13:25:02.433Z,66.10
2019-03-09T13:29:07.700Z,64.70
2019-03-09T13:33:13.031Z,66.30
2019-03-09T13:37:18.304Z,68.50
2019-03-09T13:41:23.565Z,68.90
2019-03-09T13:45:28.844Z,70.00
2019-03-09T13:49:34.110Z,68.30
2019-03-09T13:53:39.397Z,68.50
2019-03-09T13:57:44.769Z,68.30
2019-03-09T14:01:50.097Z,67.80
2019-03-09T14:05:55.445Z,68.50
2019-03-09T14:10:00.725Z,70.80
2019-03-09T14:14:06.157Z,72.50
2019-03-09T14:18:11.534Z,72.40
2019-03-09T14:22:16.798Z,73.40
2019-03-09T14:26:22.061Z,74.10
2019-03-09T14:30:27.329Z,74.10
2019-03-09T14:34:32.683Z,73.70
2019-03-09T14:38:38.031Z,75.10
2019-03-09T14:42:43.321Z,76.20
2019-03-09T14:46:48.690Z,76.10
2019-03-09T14:50:54.083Z,76.10
2019-03-09T14:54:59.362Z,76.00
2019-03-09T14:59:04.639Z,75.80
2019-03-09T15:03:09.931Z,75.10
2019-03-09T15:07:15.215Z,76.30
2019-03-09T15:11:20.477Z,76.90
2019-03-09T15:15:25.746Z,76.70
2019-03-09T15:19:31.005Z,76.40
2019-03-09T15:23:36.326Z,75.90
2019-03-09T15:27:41.595Z,75.30
2019-03-09T15:31:46.873Z,74.10
2019-03-09T15:35:52.152Z,73.80
2019-03-09T15:39:57.468Z,75.00
2019-03-09T15:44:02.806Z,76.00
2019-03-09T15:48:08.077Z,76.60
2019-03-09T15:52:13.350Z,77.40
2019-03-09T15:56:18.669Z,77.90
2019-03-09T16:00:24.703Z,80.60
2019-03-09T16:04:30.004Z,81.10
2019-03-09T16:08:35.335Z,80.70
2019-03-09T16:12:40.617Z,79.70
2019-03-09T16:16:45.916Z,77.70
2019-03-09T16:20:51.161Z,78.50
2019-03-09T16:24:56.491Z,78.40
2019-03-09T16:29:01.753Z,78.50
2019-03-09T16:33:07.070Z,78.10
2019-03-09T16:37:12.362Z,78.30
2019-03-09T16:41:17.618Z,78.30
2019-03-09T16:45:22.985Z,78.70
2019-03-09T16:49:28.245Z,78.20
2019-03-09T16:53:33.501Z,78.30
2019-03-09T16:57:38.776Z,78.20
2019-03-09T17:01:44.049Z,78.40
2019-03-09T17:05:49.261Z,78.90
2019-03-09T17:09:54.562Z,79.50
2019-03-09T17:13:59.815Z,80.10
2019-03-09T17:18:05.088Z,80.50
2019-03-09T17:22:10.370Z,81.30
2019-03-09T17:26:15.629Z,82.50
2019-03-09T17:30:21.446Z,84.50
2019-03-09T17:34:26.749Z,85.50
2019-03-09T17:38:31.993Z,86.50
2019-03-09T17:42:37.293Z,87.90
2019-03-09T17:46:42.543Z,90.30
2019-03-09T17:50:47.819Z,91.60
2019-03-09T17:54:53.075Z,92.40
2019-03-09T17:58:58.331Z,93.10
2019-03-09T18:03:03.594Z,93.30
2019-03-09T18:07:08.853Z,93.30
2019-03-09T18:11:14.153Z,93.40
2019-03-09T18:15:19.409Z,94.00
2019-03-09T18:19:24.665Z,95.80
2019-03-09T18:23:29.925Z,97.70
2019-03-09T18:27:35.182Z,97.80
2019-03-09T18:31:40.509Z,98.50
2019-03-09T18:35:45.760Z,98.60
2019-03-09T18:39:51.036Z,98.90
2019-03-09T18:43:57.098Z,98.50
2019-03-09T18:48:02.090Z,97.90
2019-03-09T18:52:07.393Z,97.70
2019-03-09T18:56:12.646Z,97.00
2019-03-09T19:00:18.869Z,96.80
2019-03-09T19:04:23.873Z,97.50
2019-03-09T19:08:28.872Z,97.60
2019-03-09T19:12:33.936Z,96.70
2019-03-09T19:16:38.933Z,96.30
2019-03-09T19:20:43.922Z,96.10
2019-03-09T19:24:48.913Z,95.60
2019-03-09T19:28:53.906Z,95.40
2019-03-09T19:33:00.526Z,95.60
2019-03-09T19:37:05.726Z,95.70
2019-03-09T19:41:10.709Z,95.80
2019-03-09T19:45:23.366Z,95.80
2019-03-09T19:49:28.431Z,95.30
2019-03-09T19:53:33.429Z,95.30
2019-03-09T19:57:38.425Z,94.80
2019-03-09T20:01:43.402Z,94.60
2019-03-09T20:05:48.434Z,94.70
2019-03-09T20:09:53.493Z,94.40
2019-03-09T20:13:58.487Z,94.10
2019-03-09T20:18:03.491Z,93.70
2019-03-09T20:22:08.445Z,93.20
2019-03-09T20:26:13.451Z,92.60
2019-03-09T20:30:19.375Z,92.10
2019-03-09T20:34:24.450Z,91.80
2019-03-09T20:38:29.432Z,91.40
2019-03-09T20:42:34.400Z,91.10
2019-03-09T20:46:42.153Z,91.20
2019-03-09T20:50:46.081Z,90.60
2019-03-09T20:54:51.085Z,90.40
2019-03-09T20:58:56.074Z,90.40
2019-03-09T21:03:01.078Z,90.40
2019-03-09T21:07:06.205Z,90.30
2019-03-09T21:11:11.201Z,90.30
2019-03-09T21:15:16.851Z,90.60
2019-03-09T21:19:22.050Z,90.60
2019-03-09T21:23:27.045Z,90.50
2019-03-09T21:27:32.013Z,90.40
2019-03-09T21:31:37.860Z,90.40
2019-03-09T21:35:43.134Z,90.50
2019-03-09T21:39:48.209Z,90.50
2019-03-09T21:43:53.209Z,90.60
2019-03-09T21:47:58.183Z,90.40
2019-03-09T21:52:03.169Z,90.50
2019-03-09T21:56:08.166Z,90.20
2019-03-09T22:00:19.306Z,90.30
2019-03-09T22:04:24.389Z,90.00
2019-03-09T22:08:29.457Z,90.10
2019-03-09T22:12:34.436Z,90.10
2019-03-09T22:16:39.440Z,90.10
2019-03-09T22:20:44.427Z,89.60
2019-03-09T22:24:49.441Z,89.10
2019-03-09T22:28:54.437Z,89.60
2019-03-09T22:32:59.829Z,90.10
2019-03-09T22:37:04.881Z,90.00
2019-03-09T22:41:09.985Z,90.10
2019-03-09T22:45:15.651Z,90.00
2019-03-09T22:49:20.658Z,90.10
2019-03-09T22:53:25.633Z,90.30
2019-03-09T22:57:30.637Z,90.50
2019-03-09T23:01:35.911Z,90.80
2019-03-09T23:05:41.167Z,91.00
2019-03-09T23:09:46.184Z,91.30
2019-03-09T23:13:51.166Z,91.70
2019-03-09T23:17:56.133Z,91.80
2019-03-09T23:22:01.126Z,92.00
2019-03-09T23:26:06.119Z,92.20
2019-03-09T23:30:19.483Z,92.60
2019-03-09T23:34:24.473Z,92.30
2019-03-09T23:38:29.447Z,92.30
2019-03-09T23:42:34.449Z,92.30
2019-03-09T23:46:39.510Z,92.40
2019-03-09T23:50:44.501Z,92.40
2019-03-09T23:54:49.501Z,92.50
2019-03-09T23:58:54.470Z,92.40
